CSA935 LKPR-EDDF
Flight info
| Callsign | CSA935 |
|---|---|
| Flight time | 0h 54m |
| Altitude | 30000 |
| Route | BALTU4B/30 BALTU DCT DONAD DCT RAPET T170 GAPLA T178 KERAX KERAX5A |
| Aircraft | T154/M-SDGRWY/S |
Departure
| Time | 2026-05-07 18:00 |
|---|---|
| Airport | Václav Havel Airport Prague (LKPR) |
Arrival
| Time | 2026-05-07 18:55 |
|---|---|
| Airport | Frankfurt Main Airport (EDDF) |
| Time | Latitude | Longitude | Altitude | Speed | Heading |
|---|---|---|---|---|---|
| 2026-05-07 17:41 | 50.10607 | 14.25927 | 1179 ft | 0 kts | 124° |
| 2026-05-07 17:53 | 50.10601 | 14.25940 | 1179 ft | 3 kts | 124° |
| 2026-05-07 17:53 | 50.10579 | 14.25986 | 1180 ft | 5 kts | 144° |
| 2026-05-07 17:53 | 50.10541 | 14.25983 | 1182 ft | 7 kts | 200° |
| 2026-05-07 17:54 | 50.10484 | 14.26012 | 1184 ft | 11 kts | 131° |
| 2026-05-07 17:54 | 50.10424 | 14.26134 | 1186 ft | 16 kts | 126° |
| 2026-05-07 17:54 | 50.10347 | 14.26294 | 1192 ft | 20 kts | 127° |
| 2026-05-07 17:54 | 50.10257 | 14.26481 | 1199 ft | 22 kts | 126° |
| 2026-05-07 17:55 | 50.10162 | 14.26677 | 1203 ft | 22 kts | 127° |
| 2026-05-07 17:55 | 50.10067 | 14.26870 | 1205 ft | 22 kts | 126° |
| 2026-05-07 17:55 | 50.09975 | 14.27066 | 1206 ft | 22 kts | 126° |
| 2026-05-07 17:55 | 50.09876 | 14.27264 | 1206 ft | 23 kts | 127° |
| 2026-05-07 17:56 | 50.09763 | 14.27452 | 1207 ft | 24 kts | 135° |
| 2026-05-07 17:56 | 50.09644 | 14.27633 | 1208 ft | 24 kts | 136° |
| 2026-05-07 17:56 | 50.09527 | 14.27809 | 1214 ft | 21 kts | 135° |
| 2026-05-07 17:56 | 50.09424 | 14.27969 | 1219 ft | 20 kts | 135° |
| 2026-05-07 17:57 | 50.09326 | 14.28114 | 1223 ft | 18 kts | 135° |
| 2026-05-07 17:57 | 50.09272 | 14.28200 | 1226 ft | 10 kts | 133° |
| 2026-05-07 17:57 | 50.09225 | 14.28269 | 1229 ft | 5 kts | 152° |
| 2026-05-07 17:57 | 50.09204 | 14.28280 | 1230 ft | 1 kts | 171° |
| 2026-05-07 17:58 | 50.09202 | 14.28280 | 1230 ft | 1 kts | 173° |
| 2026-05-07 17:58 | 50.09177 | 14.28280 | 1232 ft | 5 kts | 186° |
| 2026-05-07 17:58 | 50.09127 | 14.28243 | 1233 ft | 12 kts | 220° |
| 2026-05-07 17:58 | 50.09067 | 14.28157 | 1234 ft | 7 kts | 242° |
| 2026-05-07 17:59 | 50.09085 | 14.28083 | 1234 ft | 6 kts | 309° |
| 2026-05-07 17:59 | 50.09091 | 14.28072 | 1234 ft | 0 kts | 308° |
| 2026-05-07 17:59 | 50.09151 | 14.27951 | 1233 ft | 50 kts | 307° |
| 2026-05-07 17:59 | 50.09547 | 14.27130 | 1221 ft | 137 kts | 306° |
| 2026-05-07 18:00 | 50.10248 | 14.25706 | 1509 ft | 179 kts | 305° |
| 2026-05-07 18:00 | 50.11062 | 14.24113 | 2097 ft | 203 kts | 308° |
| 2026-05-07 18:00 | 50.12007 | 14.22289 | 2572 ft | 228 kts | 308° |
| 2026-05-07 18:00 | 50.12972 | 14.20354 | 3455 ft | 224 kts | 307° |
| 2026-05-07 18:01 | 50.13868 | 14.18412 | 4172 ft | 228 kts | 305° |
| 2026-05-07 18:01 | 50.14794 | 14.16402 | 4923 ft | 230 kts | 305° |
| 2026-05-07 18:01 | 50.15747 | 14.14390 | 5681 ft | 232 kts | 305° |
| 2026-05-07 18:01 | 50.16712 | 14.12369 | 6369 ft | 236 kts | 305° |
| 2026-05-07 18:02 | 50.18687 | 14.08222 | 7760 ft | 243 kts | 300° |
| 2026-05-07 18:02 | 50.19301 | 14.05792 | 8418 ft | 245 kts | 277° |
| 2026-05-07 18:02 | 50.19427 | 14.03161 | 9174 ft | 245 kts | 270° |
| 2026-05-07 18:03 | 50.19458 | 14.00528 | 9982 ft | 245 kts | 270° |
| 2026-05-07 18:03 | 50.19491 | 13.97891 | 10714 ft | 247 kts | 270° |
| 2026-05-07 18:03 | 50.19515 | 13.95143 | 11175 ft | 260 kts | 269° |
| 2026-05-07 18:03 | 50.19529 | 13.92249 | 11481 ft | 279 kts | 269° |
| 2026-05-07 18:04 | 50.19540 | 13.89113 | 11812 ft | 296 kts | 269° |
| 2026-05-07 18:04 | 50.19552 | 13.85883 | 12273 ft | 306 kts | 269° |
| 2026-05-07 18:04 | 50.19564 | 13.82589 | 13027 ft | 306 kts | 269° |
| 2026-05-07 18:04 | 50.19574 | 13.79231 | 13648 ft | 311 kts | 269° |
| 2026-05-07 18:05 | 50.19583 | 13.75875 | 14346 ft | 313 kts | 269° |
| 2026-05-07 18:05 | 50.19591 | 13.72443 | 15016 ft | 317 kts | 269° |
| 2026-05-07 18:05 | 50.19598 | 13.69027 | 15670 ft | 319 kts | 270° |
| 2026-05-07 18:05 | 50.19605 | 13.65596 | 16303 ft | 323 kts | 270° |
| 2026-05-07 18:06 | 50.19611 | 13.62090 | 16948 ft | 325 kts | 270° |
| 2026-05-07 18:06 | 50.19615 | 13.58552 | 17590 ft | 327 kts | 270° |
| 2026-05-07 18:06 | 50.19617 | 13.55016 | 18195 ft | 331 kts | 270° |
| 2026-05-07 18:06 | 50.19619 | 13.51412 | 18804 ft | 334 kts | 271° |
| 2026-05-07 18:07 | 50.19620 | 13.47808 | 19410 ft | 337 kts | 271° |
| 2026-05-07 18:07 | 50.19620 | 13.44111 | 20048 ft | 339 kts | 271° |
| 2026-05-07 18:07 | 50.19619 | 13.40427 | 20688 ft | 341 kts | 271° |
| 2026-05-07 18:07 | 50.19617 | 13.36748 | 21327 ft | 343 kts | 272° |
| 2026-05-07 18:08 | 50.19613 | 13.33008 | 21904 ft | 347 kts | 271° |
| 2026-05-07 18:08 | 50.19609 | 13.29263 | 22476 ft | 350 kts | 272° |
| 2026-05-07 18:08 | 50.19603 | 13.25461 | 23129 ft | 352 kts | 272° |
| 2026-05-07 18:08 | 50.19595 | 13.21654 | 23694 ft | 355 kts | 272° |
| 2026-05-07 18:09 | 50.19587 | 13.17779 | 24305 ft | 357 kts | 272° |
| 2026-05-07 18:09 | 50.19577 | 13.13955 | 24853 ft | 360 kts | 272° |
| 2026-05-07 18:09 | 50.19565 | 13.10013 | 25348 ft | 364 kts | 272° |
| 2026-05-07 18:09 | 50.19554 | 13.06023 | 25855 ft | 368 kts | 272° |
| 2026-05-07 18:10 | 50.19539 | 13.02042 | 26424 ft | 370 kts | 272° |
| 2026-05-07 18:10 | 50.19523 | 12.98062 | 26901 ft | 373 kts | 272° |
| 2026-05-07 18:10 | 50.19505 | 12.93947 | 27363 ft | 378 kts | 272° |
| 2026-05-07 18:10 | 50.19487 | 12.89823 | 27734 ft | 385 kts | 272° |
| 2026-05-07 18:11 | 50.19466 | 12.85637 | 27788 ft | 398 kts | 272° |
| 2026-05-07 18:11 | 50.19452 | 12.82747 | 27784 ft | 402 kts | 272° |
| 2026-05-07 18:11 | 50.19419 | 12.76917 | 27956 ft | 407 kts | 272° |
| 2026-05-07 18:11 | 50.19391 | 12.72432 | 28062 ft | 411 kts | 272° |
| 2026-05-07 18:12 | 50.19388 | 12.68008 | 28053 ft | 416 kts | 275° |
| 2026-05-07 18:12 | 50.19848 | 12.63528 | 28035 ft | 419 kts | 287° |
| 2026-05-07 18:12 | 50.20654 | 12.59193 | 28043 ft | 420 kts | 288° |
| 2026-05-07 18:13 | 50.22320 | 12.50436 | 28022 ft | 423 kts | 288° |
| 2026-05-07 18:13 | 50.23999 | 12.41629 | 28025 ft | 425 kts | 288° |
| 2026-05-07 18:14 | 50.25691 | 12.32754 | 27985 ft | 428 kts | 288° |
| 2026-05-07 18:14 | 50.26538 | 12.28283 | 27969 ft | 429 kts | 287° |
| 2026-05-07 18:14 | 50.27379 | 12.23835 | 27992 ft | 429 kts | 288° |
| 2026-05-07 18:15 | 50.29065 | 12.14909 | 28020 ft | 430 kts | 288° |
| 2026-05-07 18:15 | 50.30763 | 12.05887 | 28043 ft | 431 kts | 288° |
| 2026-05-07 18:16 | 50.32445 | 11.96905 | 28047 ft | 433 kts | 287° |
| 2026-05-07 18:16 | 50.34130 | 11.87861 | 28050 ft | 434 kts | 287° |
| 2026-05-07 18:17 | 50.35805 | 11.78835 | 28054 ft | 435 kts | 287° |
| 2026-05-07 18:17 | 50.37481 | 11.69752 | 28051 ft | 436 kts | 287° |
| 2026-05-07 18:18 | 50.39162 | 11.60603 | 28047 ft | 437 kts | 287° |
| 2026-05-07 18:18 | 50.40834 | 11.51453 | 28043 ft | 438 kts | 287° |
| 2026-05-07 18:19 | 50.42499 | 11.42292 | 28030 ft | 439 kts | 287° |
| 2026-05-07 18:19 | 50.44115 | 11.33352 | 27691 ft | 432 kts | 286° |
| 2026-05-07 18:19 | 50.44924 | 11.28842 | 27118 ft | 436 kts | 286° |
| 2026-05-07 18:20 | 50.45728 | 11.24366 | 26933 ft | 427 kts | 286° |
| 2026-05-07 18:20 | 50.46532 | 11.19871 | 26324 ft | 426 kts | 286° |
| 2026-05-07 18:20 | 50.47326 | 11.15431 | 25688 ft | 424 kts | 286° |
| 2026-05-07 18:20 | 50.48116 | 11.11005 | 25149 ft | 420 kts | 286° |
| 2026-05-07 18:21 | 50.48891 | 11.06640 | 24654 ft | 414 kts | 285° |
| 2026-05-07 18:21 | 50.49370 | 11.02215 | 24328 ft | 406 kts | 274° |
| 2026-05-07 18:21 | 50.49423 | 10.97856 | 24088 ft | 397 kts | 270° |
| 2026-05-07 18:21 | 50.49398 | 10.93584 | 24029 ft | 385 kts | 270° |
| 2026-05-07 18:22 | 50.49369 | 10.89445 | 24048 ft | 382 kts | 269° |
| 2026-05-07 18:22 | 50.49296 | 10.86691 | 24068 ft | 379 kts | 268° |
| 2026-05-07 18:22 | 50.49060 | 10.81207 | 24081 ft | 373 kts | 267° |
| 2026-05-07 18:22 | 50.48882 | 10.77183 | 24102 ft | 374 kts | 267° |
| 2026-05-07 18:23 | 50.48704 | 10.73126 | 24120 ft | 376 kts | 267° |
| 2026-05-07 18:23 | 50.48521 | 10.68995 | 24143 ft | 382 kts | 267° |
| 2026-05-07 18:23 | 50.48333 | 10.64822 | 24114 ft | 387 kts | 267° |
| 2026-05-07 18:23 | 50.48144 | 10.60605 | 24075 ft | 390 kts | 267° |
| 2026-05-07 18:24 | 50.47949 | 10.56304 | 24082 ft | 391 kts | 266° |
| 2026-05-07 18:24 | 50.47755 | 10.52090 | 24099 ft | 391 kts | 266° |
| 2026-05-07 18:24 | 50.47558 | 10.47856 | 24023 ft | 391 kts | 266° |
| 2026-05-07 18:24 | 50.47358 | 10.43620 | 23762 ft | 385 kts | 266° |
| 2026-05-07 18:25 | 50.47165 | 10.39469 | 23258 ft | 384 kts | 266° |
| 2026-05-07 18:25 | 50.46972 | 10.35336 | 22768 ft | 381 kts | 266° |
| 2026-05-07 18:25 | 50.46775 | 10.31165 | 22214 ft | 380 kts | 266° |
| 2026-05-07 18:25 | 50.46580 | 10.27082 | 21713 ft | 377 kts | 266° |
| 2026-05-07 18:26 | 50.46384 | 10.23025 | 21231 ft | 373 kts | 266° |
| 2026-05-07 18:26 | 50.46188 | 10.18992 | 20712 ft | 371 kts | 266° |
| 2026-05-07 18:26 | 50.45993 | 10.14985 | 20192 ft | 368 kts | 266° |
| 2026-05-07 18:26 | 50.45794 | 10.10964 | 19675 ft | 365 kts | 266° |
| 2026-05-07 18:27 | 50.45572 | 10.07092 | 19179 ft | 362 kts | 262° |
| 2026-05-07 18:27 | 50.45012 | 10.03253 | 18638 ft | 360 kts | 254° |
| 2026-05-07 18:27 | 50.44254 | 9.99565 | 18141 ft | 356 kts | 253° |
| 2026-05-07 18:27 | 50.43731 | 9.97059 | 17764 ft | 355 kts | 253° |
| 2026-05-07 18:28 | 50.42731 | 9.92223 | 17012 ft | 352 kts | 253° |
| 2026-05-07 18:28 | 50.41977 | 9.88594 | 16472 ft | 350 kts | 253° |
| 2026-05-07 18:28 | 50.41225 | 9.84994 | 15894 ft | 348 kts | 253° |
| 2026-05-07 18:28 | 50.40478 | 9.81424 | 15360 ft | 344 kts | 253° |
| 2026-05-07 18:29 | 50.39733 | 9.77872 | 14812 ft | 342 kts | 253° |
| 2026-05-07 18:29 | 50.38995 | 9.74365 | 14253 ft | 339 kts | 253° |
| 2026-05-07 18:29 | 50.38266 | 9.70902 | 13707 ft | 336 kts | 253° |
| 2026-05-07 18:29 | 50.37541 | 9.67462 | 13280 ft | 329 kts | 253° |
| 2026-05-07 18:30 | 50.36821 | 9.64058 | 13121 ft | 331 kts | 253° |
| 2026-05-07 18:30 | 50.36102 | 9.60657 | 13070 ft | 332 kts | 253° |
| 2026-05-07 18:30 | 50.35372 | 9.57211 | 13084 ft | 333 kts | 253° |
| 2026-05-07 18:30 | 50.34642 | 9.53770 | 13028 ft | 333 kts | 253° |
| 2026-05-07 18:31 | 50.33917 | 9.50359 | 13036 ft | 331 kts | 253° |
| 2026-05-07 18:31 | 50.33192 | 9.46962 | 13042 ft | 330 kts | 253° |
| 2026-05-07 18:31 | 50.32463 | 9.43544 | 13047 ft | 328 kts | 253° |
| 2026-05-07 18:31 | 50.31746 | 9.40188 | 13047 ft | 327 kts | 253° |
| 2026-05-07 18:32 | 50.31023 | 9.36814 | 13052 ft | 326 kts | 253° |
| 2026-05-07 18:32 | 50.30304 | 9.33461 | 13039 ft | 325 kts | 252° |
| 2026-05-07 18:32 | 50.29590 | 9.30119 | 13031 ft | 325 kts | 252° |
| 2026-05-07 18:32 | 50.28872 | 9.26767 | 13041 ft | 326 kts | 252° |
| 2026-05-07 18:33 | 50.28148 | 9.23400 | 13056 ft | 328 kts | 252° |
| 2026-05-07 18:33 | 50.27417 | 9.20007 | 13067 ft | 330 kts | 252° |
| 2026-05-07 18:33 | 50.26687 | 9.16637 | 13083 ft | 330 kts | 252° |
| 2026-05-07 18:33 | 50.25951 | 9.13239 | 13080 ft | 331 kts | 252° |
| 2026-05-07 18:34 | 50.25212 | 9.09836 | 13074 ft | 330 kts | 252° |
| 2026-05-07 18:34 | 50.24487 | 9.06512 | 12936 ft | 321 kts | 252° |
| 2026-05-07 18:34 | 50.23768 | 9.03221 | 12642 ft | 318 kts | 252° |
| 2026-05-07 18:34 | 50.23058 | 8.99978 | 12330 ft | 318 kts | 252° |
| 2026-05-07 18:35 | 50.22339 | 8.96701 | 12032 ft | 320 kts | 252° |
| 2026-05-07 18:35 | 50.21621 | 8.93429 | 11760 ft | 319 kts | 252° |
| 2026-05-07 18:35 | 50.20904 | 8.90147 | 11493 ft | 316 kts | 252° |
| 2026-05-07 18:35 | 50.20199 | 8.86925 | 11257 ft | 313 kts | 252° |
| 2026-05-07 18:36 | 50.19490 | 8.83691 | 11105 ft | 315 kts | 252° |
| 2026-05-07 18:36 | 50.18793 | 8.80513 | 11086 ft | 314 kts | 252° |
| 2026-05-07 18:36 | 50.18076 | 8.77255 | 11029 ft | 313 kts | 252° |
| 2026-05-07 18:36 | 50.17372 | 8.74071 | 11025 ft | 314 kts | 252° |
| 2026-05-07 18:37 | 50.16662 | 8.70854 | 11035 ft | 314 kts | 252° |
| 2026-05-07 18:37 | 50.15952 | 8.67642 | 11046 ft | 314 kts | 252° |
| 2026-05-07 18:37 | 50.15235 | 8.64406 | 11041 ft | 314 kts | 252° |
| 2026-05-07 18:37 | 50.14529 | 8.61228 | 11056 ft | 314 kts | 252° |
| 2026-05-07 18:38 | 50.13808 | 8.57990 | 11053 ft | 314 kts | 252° |
| 2026-05-07 18:38 | 50.13092 | 8.54776 | 11065 ft | 314 kts | 252° |
| 2026-05-07 18:38 | 50.12379 | 8.51581 | 11068 ft | 315 kts | 252° |
| 2026-05-07 18:38 | 50.11662 | 8.48371 | 11065 ft | 315 kts | 252° |
| 2026-05-07 18:39 | 50.10944 | 8.45166 | 11050 ft | 305 kts | 252° |
| 2026-05-07 18:39 | 50.10264 | 8.42141 | 10893 ft | 291 kts | 252° |
| 2026-05-07 18:39 | 50.09613 | 8.39240 | 10705 ft | 279 kts | 252° |
| 2026-05-07 18:39 | 50.08978 | 8.36414 | 10467 ft | 270 kts | 252° |
| 2026-05-07 18:40 | 50.08376 | 8.33737 | 10224 ft | 262 kts | 251° |
| 2026-05-07 18:40 | 50.07787 | 8.31099 | 9937 ft | 257 kts | 251° |
| 2026-05-07 18:40 | 50.07203 | 8.28498 | 9620 ft | 253 kts | 251° |
| 2026-05-07 18:40 | 50.06624 | 8.25928 | 9314 ft | 249 kts | 251° |
| 2026-05-07 18:41 | 50.06054 | 8.23403 | 8995 ft | 246 kts | 251° |
| 2026-05-07 18:41 | 50.05492 | 8.20922 | 8685 ft | 245 kts | 251° |
| 2026-05-07 18:41 | 50.04924 | 8.18420 | 8408 ft | 245 kts | 251° |
| 2026-05-07 18:41 | 50.04361 | 8.15939 | 8223 ft | 243 kts | 251° |
| 2026-05-07 18:42 | 50.03797 | 8.13466 | 8088 ft | 240 kts | 251° |
| 2026-05-07 18:42 | 50.03238 | 8.11028 | 8097 ft | 241 kts | 251° |
| 2026-05-07 18:42 | 50.02663 | 8.08573 | 8148 ft | 242 kts | 250° |
| 2026-05-07 18:42 | 50.02063 | 8.06116 | 8169 ft | 242 kts | 250° |
| 2026-05-07 18:43 | 50.01460 | 8.03669 | 8129 ft | 245 kts | 250° |
| 2026-05-07 18:43 | 50.00849 | 8.01173 | 8078 ft | 247 kts | 250° |
| 2026-05-07 18:43 | 50.00252 | 7.98743 | 7995 ft | 237 kts | 250° |
| 2026-05-07 18:43 | 49.99665 | 7.96348 | 7594 ft | 239 kts | 250° |
| 2026-05-07 18:44 | 49.99078 | 7.93944 | 7203 ft | 239 kts | 250° |
| 2026-05-07 18:44 | 49.98489 | 7.91545 | 6845 ft | 238 kts | 250° |
| 2026-05-07 18:44 | 49.97681 | 7.89316 | 6406 ft | 241 kts | 225° |
| 2026-05-07 18:44 | 49.96261 | 7.88006 | 6182 ft | 234 kts | 192° |
| 2026-05-07 18:45 | 49.94645 | 7.88064 | 6118 ft | 239 kts | 159° |
| 2026-05-07 18:45 | 49.93137 | 7.89111 | 6051 ft | 241 kts | 151° |
| 2026-05-07 18:45 | 49.91655 | 7.90350 | 6007 ft | 241 kts | 148° |
| 2026-05-07 18:45 | 49.90477 | 7.92128 | 5972 ft | 242 kts | 115° |
| 2026-05-07 18:46 | 49.90035 | 7.94590 | 6086 ft | 237 kts | 94° |
| 2026-05-07 18:46 | 49.89897 | 7.97162 | 6041 ft | 239 kts | 88° |
| 2026-05-07 18:46 | 49.89935 | 7.99735 | 6023 ft | 236 kts | 84° |
| 2026-05-07 18:46 | 49.90113 | 8.02220 | 6001 ft | 230 kts | 77° |
| 2026-05-07 18:47 | 49.90488 | 8.04605 | 6016 ft | 231 kts | 70° |
| 2026-05-07 18:47 | 49.91051 | 8.06952 | 6097 ft | 232 kts | 65° |
| 2026-05-07 18:47 | 49.91723 | 8.09248 | 6029 ft | 237 kts | 63° |
| 2026-05-07 18:47 | 49.92435 | 8.11552 | 5824 ft | 239 kts | 63° |
| 2026-05-07 18:48 | 49.93128 | 8.13901 | 5475 ft | 241 kts | 65° |
| 2026-05-07 18:48 | 49.93767 | 8.16286 | 5005 ft | 239 kts | 66° |
| 2026-05-07 18:48 | 49.94344 | 8.18653 | 4633 ft | 233 kts | 68° |
| 2026-05-07 18:48 | 49.94883 | 8.20984 | 4280 ft | 227 kts | 68° |
| 2026-05-07 18:49 | 49.95385 | 8.23161 | 4332 ft | 196 kts | 68° |
| 2026-05-07 18:49 | 49.95827 | 8.25035 | 4300 ft | 182 kts | 67° |
| 2026-05-07 18:49 | 49.96267 | 8.26839 | 4121 ft | 175 kts | 66° |
| 2026-05-07 18:49 | 49.96713 | 8.28627 | 3781 ft | 178 kts | 66° |
| 2026-05-07 18:50 | 49.97160 | 8.30409 | 3474 ft | 176 kts | 66° |
| 2026-05-07 18:50 | 49.97589 | 8.32147 | 3202 ft | 171 kts | 67° |
| 2026-05-07 18:50 | 49.98011 | 8.33878 | 2970 ft | 171 kts | 67° |
| 2026-05-07 18:50 | 49.98430 | 8.35605 | 2766 ft | 171 kts | 67° |
| 2026-05-07 18:51 | 49.98848 | 8.37322 | 2545 ft | 172 kts | 68° |
| 2026-05-07 18:51 | 49.99269 | 8.39062 | 2298 ft | 164 kts | 68° |
| 2026-05-07 18:51 | 49.99644 | 8.40615 | 2045 ft | 145 kts | 67° |
| 2026-05-07 18:51 | 49.99983 | 8.42003 | 1874 ft | 138 kts | 67° |
| 2026-05-07 18:52 | 50.00331 | 8.43426 | 1721 ft | 139 kts | 68° |
| 2026-05-07 18:52 | 50.00667 | 8.44813 | 1516 ft | 138 kts | 68° |
| 2026-05-07 18:52 | 50.01008 | 8.46213 | 1338 ft | 140 kts | 68° |
| 2026-05-07 18:52 | 50.01352 | 8.47633 | 1150 ft | 141 kts | 68° |
| 2026-05-07 18:53 | 50.01691 | 8.49049 | 951 ft | 138 kts | 68° |
| 2026-05-07 18:53 | 50.02021 | 8.50431 | 749 ft | 135 kts | 68° |
| 2026-05-07 18:53 | 50.02356 | 8.51778 | 589 ft | 137 kts | 67° |
| 2026-05-07 18:53 | 50.02690 | 8.53140 | 404 ft | 135 kts | 68° |
| 2026-05-07 18:54 | 50.02998 | 8.54426 | 334 ft | 108 kts | 69° |
| 2026-05-07 18:54 | 50.03207 | 8.55310 | 337 ft | 74 kts | 69° |
| 2026-05-07 18:54 | 50.03374 | 8.56005 | 340 ft | 64 kts | 71° |
| 2026-05-07 18:54 | 50.03516 | 8.56617 | 344 ft | 53 kts | 68° |
| 2026-05-07 18:55 | 50.03661 | 8.57018 | 346 ft | 39 kts | 44° |
| 2026-05-07 18:55 | 50.03798 | 8.57210 | 352 ft | 19 kts | 39° |
| 2026-05-07 18:55 | 50.03834 | 8.57256 | 353 ft | 2 kts | 37° |
| 2026-05-07 18:55 | 50.03852 | 8.57276 | 354 ft | 6 kts | 37° |
| 2026-05-07 18:56 | 50.03915 | 8.57355 | 357 ft | 15 kts | 41° |
| 2026-05-07 18:56 | 50.03979 | 8.57514 | 360 ft | 18 kts | 68° |
| 2026-05-07 18:56 | 50.04023 | 8.57697 | 363 ft | 17 kts | 71° |
| 2026-05-07 18:56 | 50.04065 | 8.57875 | 366 ft | 18 kts | 68° |
| 2026-05-07 18:57 | 50.04116 | 8.58082 | 369 ft | 21 kts | 69° |
| 2026-05-07 18:57 | 50.04175 | 8.58328 | 370 ft | 26 kts | 69° |
| 2026-05-07 18:57 | 50.04239 | 8.58601 | 368 ft | 27 kts | 71° |
| 2026-05-07 18:57 | 50.04314 | 8.58895 | 364 ft | 30 kts | 68° |
| 2026-05-07 18:58 | 50.04378 | 8.59164 | 365 ft | 24 kts | 69° |
| 2026-05-07 18:58 | 50.04424 | 8.59358 | 368 ft | 13 kts | 69° |
| 2026-05-07 18:58 | 50.04454 | 8.59451 | 369 ft | 8 kts | 38° |
| 2026-05-07 18:58 | 50.04514 | 8.59473 | 369 ft | 9 kts | 0° |
| 2026-05-07 18:59 | 50.04547 | 8.59471 | 368 ft | 1 kts | 357° |
| 2026-05-07 18:59 | 50.04552 | 8.59471 | 368 ft | 2 kts | 357° |
| 2026-05-07 18:59 | 50.04608 | 8.59466 | 367 ft | 14 kts | 355° |
| 2026-05-07 18:59 | 50.04734 | 8.59424 | 365 ft | 17 kts | 341° |
| 2026-05-07 19:00 | 50.04812 | 8.59376 | 364 ft | 3 kts | 338° |
| 2026-05-07 19:00 | 50.04816 | 8.59374 | 364 ft | 0 kts | 339° |
| 2026-05-07 19:01 | 50.04820 | 8.59371 | 364 ft | 1 kts | 339° |
| 2026-05-07 19:01 | 50.04843 | 8.59364 | 364 ft | 4 kts | 358° |
| 2026-05-07 19:01 | 50.04875 | 8.59368 | 365 ft | 5 kts | 7° |
| 2026-05-07 19:01 | 50.04926 | 8.59372 | 367 ft | 9 kts | 352° |
| 2026-05-07 19:02 | 50.05003 | 8.59337 | 370 ft | 12 kts | 339° |
| 2026-05-07 19:02 | 50.05069 | 8.59275 | 373 ft | 10 kts | 301° |
| 2026-05-07 19:02 | 50.05069 | 8.59168 | 374 ft | 11 kts | 248° |
| 2026-05-07 19:02 | 50.05040 | 8.59045 | 374 ft | 12 kts | 249° |
| 2026-05-07 19:03 | 50.05016 | 8.58948 | 375 ft | 6 kts | 244° |
| 2026-05-07 19:03 | 50.04981 | 8.58912 | 373 ft | 7 kts | 166° |
| 2026-05-07 19:03 | 50.04939 | 8.58937 | 370 ft | 2 kts | 158° |
| 2026-05-07 19:03 | 50.04932 | 8.58941 | 370 ft | 0 kts | 159° |